createdAt,value
2019-06-27T00:00:54.210Z,97197.21
2019-06-27T00:03:22.859Z,97198.34
2019-06-27T00:05:51.475Z,97196.28
2019-06-27T00:08:20.070Z,97195.80
2019-06-27T00:10:48.628Z,97194.61
2019-06-27T00:13:17.285Z,97197.06
2019-06-27T00:15:45.919Z,97197.72
2019-06-27T00:18:14.479Z,97189.52
2019-06-27T00:20:43.072Z,97188.60
2019-06-27T00:23:11.681Z,97187.80
2019-06-27T00:25:40.353Z,97186.52
2019-06-27T00:28:08.970Z,97182.50
2019-06-27T00:30:37.631Z,97196.20
2019-06-27T00:33:06.182Z,97191.30
2019-06-27T00:35:34.763Z,97196.94
2019-06-27T00:38:03.414Z,97193.89
2019-06-27T00:40:31.989Z,97197.37
2019-06-27T00:43:00.563Z,97199.17
2019-06-27T00:45:29.144Z,97197.31
2019-06-27T00:47:57.784Z,97202.58
2019-06-27T00:50:26.411Z,97199.20
2019-06-27T00:52:55.070Z,97202.20
2019-06-27T00:55:23.692Z,97197.39
2019-06-27T00:57:52.353Z,97196.70
2019-06-27T01:00:21.058Z,97198.14
2019-06-27T01:02:49.677Z,97201.72
2019-06-27T01:05:18.317Z,97199.61
2019-06-27T01:07:46.931Z,97198.61
2019-06-27T01:10:55.378Z,97193.81
2019-06-27T01:13:24.022Z,97202.77
2019-06-27T01:15:52.659Z,97201.20
2019-06-27T01:18:21.272Z,97206.09
2019-06-27T01:20:49.937Z,97215.30
2019-06-27T01:23:18.613Z,97205.87
2019-06-27T01:25:47.203Z,97205.39
2019-06-27T01:28:15.847Z,97208.82
2019-06-27T01:30:44.558Z,97209.28
2019-06-27T01:33:13.144Z,97218.21
2019-06-27T01:35:41.750Z,97223.05
2019-06-27T01:38:10.510Z,97223.58
2019-06-27T01:40:39.127Z,97220.30
2019-06-27T01:43:07.895Z,97220.52
2019-06-27T01:48:25.748Z,97209.22
2019-06-27T01:50:54.355Z,97209.33
2019-06-27T01:53:22.957Z,97207.47
2019-06-27T01:55:51.534Z,97204.09
2019-06-27T01:58:20.145Z,97213.48
2019-06-27T02:00:48.767Z,97208.14
2019-06-27T02:03:17.435Z,97218.87
2019-06-27T02:05:46.139Z,97220.73
2019-06-27T02:08:14.677Z,97222.72
2019-06-27T02:10:43.240Z,97230.60
2019-06-27T02:13:11.890Z,97227.11
2019-06-27T02:15:40.540Z,97224.14
2019-06-27T02:18:09.154Z,97228.86
2019-06-27T02:20:37.821Z,97224.16
2019-06-27T02:23:06.435Z,97229.31
2019-06-27T02:25:35.086Z,97231.16
2019-06-27T02:28:04.760Z,97232.58
2019-06-27T02:30:53.269Z,97234.45
2019-06-27T02:33:21.812Z,97230.94
2019-06-27T02:35:50.378Z,97233.13
2019-06-27T02:38:18.996Z,97230.93
2019-06-27T02:40:47.636Z,97232.48
2019-06-27T02:43:16.249Z,97238.38
2019-06-27T02:45:44.916Z,97241.79
2019-06-27T02:48:13.504Z,97231.94
2019-06-27T02:50:42.121Z,97235.22
2019-06-27T02:53:10.693Z,97241.23
2019-06-27T02:55:39.316Z,97237.16
2019-06-27T02:58:27.931Z,97233.56
2019-06-27T03:00:38.337Z,97235.63
2019-06-27T03:03:18.585Z,97230.44
2019-06-27T03:05:47.211Z,97236.58
2019-06-27T03:08:15.847Z,97230.76
2019-06-27T03:10:44.447Z,97228.55
2019-06-27T03:13:13.116Z,97226.90
2019-06-27T03:15:41.637Z,97224.15
2019-06-27T03:18:10.248Z,97228.37
2019-06-27T03:20:38.899Z,97225.73
2019-06-27T03:23:07.514Z,97231.11
2019-06-27T03:25:36.092Z,97226.30
2019-06-27T03:28:04.703Z,97233.70
2019-06-27T03:30:33.360Z,97228.55
2019-06-27T03:33:01.996Z,97232.80
2019-06-27T03:35:30.581Z,97233.56
2019-06-27T03:38:38.959Z,97236.40
2019-06-27T03:41:07.613Z,97232.46
2019-06-27T03:43:36.218Z,97238.24
2019-06-27T03:46:04.801Z,97236.49
2019-06-27T03:48:33.419Z,97240.74
2019-06-27T03:51:02.083Z,97238.44
2019-06-27T03:53:30.623Z,97239.39
2019-06-27T03:55:59.269Z,97237.30
2019-06-27T03:58:27.994Z,97232.95
2019-06-27T04:00:56.603Z,97236.46
2019-06-27T04:03:25.221Z,97232.73
2019-06-27T04:05:53.869Z,97224.20
2019-06-27T04:08:22.511Z,97232.87
2019-06-27T04:11:30.924Z,97230.37
2019-06-27T04:14:39.355Z,97230.80
2019-06-27T04:17:08.004Z,97226.21
2019-06-27T04:19:36.976Z,97228.65
2019-06-27T04:22:05.620Z,97233.02
2019-06-27T04:24:34.327Z,97234.46
2019-06-27T04:27:02.965Z,97241.48
2019-06-27T04:29:33.813Z,97239.17
2019-06-27T04:32:01.964Z,97238.54
2019-06-27T04:34:30.495Z,97240.54
2019-06-27T04:36:59.131Z,97244.28
2019-06-27T04:39:27.741Z,97242.07
2019-06-27T04:41:56.357Z,97250.85
2019-06-27T04:44:24.959Z,97244.50
2019-06-27T04:46:53.541Z,97244.06
2019-06-27T04:49:22.135Z,97241.67
2019-06-27T04:51:50.782Z,97246.38
2019-06-27T04:54:19.307Z,97248.67
2019-06-27T04:56:59.579Z,97249.89
2019-06-27T04:59:28.229Z,97251.09
2019-06-27T05:02:36.664Z,97248.45
2019-06-27T05:05:45.194Z,97249.14
2019-06-27T05:08:14.734Z,97249.34
2019-06-27T05:10:44.297Z,97247.50
2019-06-27T05:13:12.805Z,97250.89
2019-06-27T05:15:41.399Z,97251.98
2019-06-27T05:18:10.007Z,97245.32
2019-06-27T05:20:38.589Z,97246.39
2019-06-27T05:23:07.167Z,97260.00
2019-06-27T05:25:35.656Z,97255.82
2019-06-27T05:28:04.305Z,97255.83
2019-06-27T05:30:32.869Z,97258.73
2019-06-27T05:33:01.486Z,97257.52
2019-06-27T05:35:30.178Z,97257.16
2019-06-27T05:37:58.797Z,97254.74
2019-06-27T05:40:27.380Z,97256.80
2019-06-27T05:42:56.170Z,97256.16
2019-06-27T05:45:24.837Z,97257.09
2019-06-27T05:47:53.489Z,97258.92
2019-06-27T05:50:22.127Z,97262.25
2019-06-27T05:52:50.696Z,97257.95
2019-06-27T05:55:19.325Z,97252.98
2019-06-27T05:57:47.810Z,97257.20
2019-06-27T06:00:56.249Z,97252.12
2019-06-27T06:03:24.824Z,97256.47
2019-06-27T06:05:53.392Z,97252.12
2019-06-27T06:08:21.946Z,97251.03
2019-06-27T06:10:50.589Z,97256.94
2019-06-27T06:13:19.271Z,97252.77
2019-06-27T06:15:47.808Z,97259.67
2019-06-27T06:18:16.321Z,97259.83
2019-06-27T06:20:44.872Z,97258.60
2019-06-27T06:23:13.444Z,97263.48
2019-06-27T06:25:42.083Z,97269.06
2019-06-27T06:28:10.688Z,97267.74
2019-06-27T06:30:44.407Z,97265.16
2019-06-27T06:33:09.656Z,97275.34
2019-06-27T06:35:38.164Z,97275.62
2019-06-27T06:38:06.800Z,97277.80
2019-06-27T06:40:35.431Z,97284.56
2019-06-27T06:43:03.997Z,97283.08
2019-06-27T06:45:32.610Z,97290.45
2019-06-27T06:48:01.193Z,97292.79
2019-06-27T06:50:29.842Z,97296.84
2019-06-27T06:52:58.472Z,97297.90
2019-06-27T06:55:27.119Z,97308.94
2019-06-27T06:57:55.762Z,97306.52
2019-06-27T07:01:04.205Z,97302.15
2019-06-27T07:03:32.816Z,97305.97
2019-06-27T07:06:01.468Z,97313.20
2019-06-27T07:08:30.122Z,97311.18
2019-06-27T07:10:58.667Z,97313.77
2019-06-27T07:13:27.248Z,97311.84
2019-06-27T07:15:55.871Z,97308.98
2019-06-27T07:18:24.533Z,97313.16
2019-06-27T07:20:53.138Z,97311.33
2019-06-27T07:23:21.796Z,97315.55
2019-06-27T07:25:50.405Z,97309.91
2019-06-27T07:28:18.998Z,97317.00
2019-06-27T07:30:47.638Z,97317.71
2019-06-27T07:33:16.248Z,97323.00
2019-06-27T07:35:44.909Z,97320.25
2019-06-27T07:38:13.449Z,97324.89
2019-06-27T07:40:42.173Z,97321.66
2019-06-27T07:43:10.744Z,97323.20
2019-06-27T07:45:39.303Z,97326.89
2019-06-27T07:48:07.969Z,97329.06
2019-06-27T07:50:36.604Z,97328.15
2019-06-27T07:53:05.229Z,97336.91
2019-06-27T07:55:33.811Z,97339.95
2019-06-27T07:58:02.551Z,97341.63
2019-06-27T08:00:31.157Z,97346.20
2019-06-27T08:02:59.771Z,97342.53
2019-06-27T08:05:28.454Z,97349.55
2019-06-27T08:07:57.080Z,97340.77
2019-06-27T08:10:25.621Z,97349.52
2019-06-27T08:12:54.277Z,97346.15
2019-06-27T08:15:22.883Z,97344.64
2019-06-27T08:17:51.477Z,97342.70
2019-06-27T08:20:20.125Z,97343.73
2019-06-27T08:22:48.753Z,97346.02
2019-06-27T08:28:11.899Z,97344.88
2019-06-27T08:30:40.519Z,97341.97
2019-06-27T08:33:09.179Z,97339.66
2019-06-27T08:35:37.718Z,97345.65
2019-06-27T08:38:06.367Z,97343.55
2019-06-27T08:40:34.995Z,97344.31
2019-06-27T08:43:03.645Z,97343.38
2019-06-27T08:45:32.256Z,97347.91
2019-06-27T08:48:00.910Z,97342.95
2019-06-27T08:50:29.475Z,97343.64
2019-06-27T08:53:01.155Z,97334.51
2019-06-27T08:55:28.372Z,97334.51
2019-06-27T08:57:56.977Z,97331.70
2019-06-27T09:00:25.559Z,97330.70
2019-06-27T09:02:54.214Z,97333.26
2019-06-27T09:05:22.843Z,97337.66
2019-06-27T09:07:51.468Z,97330.94
2019-06-27T09:10:40.790Z,97334.37
2019-06-27T09:13:09.453Z,97337.86
2019-06-27T09:15:38.060Z,97339.67
2019-06-27T09:18:06.709Z,97336.66
2019-06-27T09:20:35.334Z,97334.80
2019-06-27T09:23:03.959Z,97332.72
2019-06-27T09:25:32.725Z,97329.96
2019-06-27T09:28:01.302Z,97332.58
2019-06-27T09:30:29.953Z,97326.89
2019-06-27T09:32:58.605Z,97332.07
2019-06-27T09:35:27.210Z,97330.77
2019-06-27T09:37:55.851Z,97333.23
2019-06-27T09:43:32.661Z,97336.11
2019-06-27T09:46:01.176Z,97339.00
2019-06-27T09:48:29.647Z,97336.14
2019-06-27T09:50:58.154Z,97341.86
2019-06-27T09:53:26.693Z,97338.25
2019-06-27T09:55:55.295Z,97333.67
2019-06-27T09:58:43.206Z,97335.97
2019-06-27T10:01:11.782Z,97337.87
2019-06-27T10:03:40.388Z,97337.08
2019-06-27T10:06:08.985Z,97327.16
2019-06-27T10:08:37.462Z,97335.20
2019-06-27T10:11:06.070Z,97334.78
2019-06-27T10:13:34.717Z,97331.39
2019-06-27T10:16:03.294Z,97329.47
2019-06-27T10:18:31.898Z,97329.24
2019-06-27T10:21:00.502Z,97333.23
2019-06-27T10:23:29.066Z,97330.80
2019-06-27T10:25:57.717Z,97331.39
2019-06-27T10:28:26.316Z,97326.61
2019-06-27T10:30:54.844Z,97327.35
2019-06-27T10:33:23.300Z,97320.88
2019-06-27T10:35:51.942Z,97322.24
2019-06-27T10:38:20.596Z,97316.35
2019-06-27T10:40:49.091Z,97313.47
2019-06-27T10:43:17.701Z,97312.33
2019-06-27T10:45:46.405Z,97310.61
2019-06-27T10:48:34.017Z,97308.11
2019-06-27T10:51:02.959Z,97315.53
2019-06-27T10:53:32.797Z,97312.45
2019-06-27T10:56:01.438Z,97312.02
2019-06-27T10:58:30.059Z,97305.13
2019-06-27T11:00:58.843Z,97315.11
2019-06-27T11:03:28.859Z,97300.19
2019-06-27T11:05:57.479Z,97308.50
2019-06-27T11:08:26.043Z,97307.53
2019-06-27T11:13:58.164Z,97298.06
2019-06-27T11:16:19.549Z,97294.27
2019-06-27T11:18:48.018Z,97297.82
2019-06-27T11:21:16.656Z,97293.70
2019-06-27T11:23:45.186Z,97284.88
2019-06-27T11:26:13.768Z,97283.84
2019-06-27T11:28:42.359Z,97292.83
2019-06-27T11:31:10.939Z,97289.13
2019-06-27T11:33:39.542Z,97284.43
2019-06-27T11:36:08.157Z,97288.70
2019-06-27T11:38:36.744Z,97286.79
2019-06-27T11:41:05.326Z,97283.07
2019-06-27T11:43:33.879Z,97275.58
2019-06-27T11:46:02.527Z,97271.48
2019-06-27T11:48:31.083Z,97268.52
2019-06-27T11:50:59.630Z,97272.58
2019-06-27T11:53:28.211Z,97272.71
2019-06-27T11:55:56.717Z,97268.22
2019-06-27T11:58:25.220Z,97262.53
2019-06-27T12:00:53.815Z,97258.50
2019-06-27T12:03:22.366Z,97268.77
2019-06-27T12:05:50.891Z,97267.16
2019-06-27T12:08:19.546Z,97263.15
2019-06-27T12:10:48.017Z,97259.27
2019-06-27T12:13:16.556Z,97257.59
2019-06-27T12:15:45.204Z,97257.52
2019-06-27T12:18:13.785Z,97259.27
2019-06-27T12:21:22.169Z,97259.73
2019-06-27T12:23:50.755Z,97250.66
2019-06-27T12:26:19.228Z,97251.63
2019-06-27T12:28:47.803Z,97245.42
2019-06-27T12:31:21.092Z,97238.78
2019-06-27T12:33:46.633Z,97248.02
2019-06-27T12:36:15.228Z,97240.95
2019-06-27T12:38:43.783Z,97238.39
2019-06-27T12:41:12.417Z,97241.02
2019-06-27T12:43:40.931Z,97239.12
2019-06-27T12:46:09.468Z,97238.12
2019-06-27T12:48:38.123Z,97240.02
2019-06-27T12:51:06.759Z,97239.64
2019-06-27T12:53:35.335Z,97235.56
2019-06-27T12:56:03.878Z,97229.80
2019-06-27T12:58:32.445Z,97226.63
2019-06-27T13:01:01.028Z,97225.23
2019-06-27T13:03:29.654Z,97224.70
2019-06-27T13:05:58.283Z,97223.53
2019-06-27T13:08:26.764Z,97215.94
2019-06-27T13:10:55.267Z,97214.17
2019-06-27T13:13:23.812Z,97226.70
2019-06-27T13:15:52.319Z,97221.88
2019-06-27T13:18:20.841Z,97223.89
2019-06-27T13:20:57.883Z,97226.06
2019-06-27T13:23:19.743Z,97218.28
2019-06-27T13:25:48.393Z,97216.59
2019-06-27T13:28:16.990Z,97219.27
2019-06-27T13:30:45.642Z,97217.60
2019-06-27T13:33:14.208Z,97213.73
2019-06-27T13:35:42.742Z,97211.92
2019-06-27T13:38:11.346Z,97215.28
2019-06-27T13:40:39.995Z,97212.33
2019-06-27T13:43:08.523Z,97206.13
2019-06-27T13:45:37.124Z,97203.93
2019-06-27T13:48:05.727Z,97209.79
2019-06-27T13:50:34.369Z,97209.59
2019-06-27T13:53:02.973Z,97202.08
2019-06-27T13:55:31.611Z,97208.89
2019-06-27T13:58:00.224Z,97207.14
2019-06-27T14:00:48.305Z,97198.13
2019-06-27T14:03:17.059Z,97198.56
2019-06-27T14:05:45.602Z,97198.20
2019-06-27T14:08:14.242Z,97194.42
2019-06-27T14:10:42.792Z,97191.14
2019-06-27T14:13:11.418Z,97192.94
2019-06-27T14:15:39.966Z,97190.44
2019-06-27T14:18:08.621Z,97191.35
2019-06-27T14:20:37.101Z,97191.67
2019-06-27T14:23:05.795Z,97185.41
2019-06-27T14:25:34.430Z,97190.65
2019-06-27T14:28:03.071Z,97190.40
2019-06-27T14:30:31.671Z,97198.06
2019-06-27T14:33:00.239Z,97190.38
2019-06-27T14:35:28.838Z,97193.27
2019-06-27T14:37:57.413Z,97188.75
2019-06-27T14:41:05.841Z,97189.67
2019-06-27T14:43:37.721Z,97186.47
2019-06-27T14:46:04.749Z,97184.03
2019-06-27T14:48:33.394Z,97186.41
2019-06-27T14:51:01.976Z,97188.52
2019-06-27T14:53:30.515Z,97191.19
2019-06-27T14:55:59.078Z,97184.64
2019-06-27T14:58:27.660Z,97188.05
2019-06-27T15:00:56.187Z,97183.70
2019-06-27T15:03:24.755Z,97181.61
2019-06-27T15:05:53.379Z,97181.58
2019-06-27T15:08:21.901Z,97177.12
2019-06-27T15:10:50.557Z,97174.78
2019-06-27T15:13:19.104Z,97176.48
2019-06-27T15:15:47.576Z,97172.64
2019-06-27T15:18:16.839Z,97172.19
2019-06-27T15:20:46.548Z,97167.79
2019-06-27T15:23:15.126Z,97173.98
2019-06-27T15:25:43.730Z,97169.39
2019-06-27T15:28:12.364Z,97173.47
2019-06-27T15:30:40.966Z,97172.73
2019-06-27T15:33:09.530Z,97169.50
2019-06-27T15:35:51.636Z,97167.83
2019-06-27T15:38:08.455Z,97165.70
2019-06-27T15:40:37.049Z,97171.35
2019-06-27T15:43:05.702Z,97161.41
2019-06-27T15:45:34.283Z,97158.98
2019-06-27T15:48:02.944Z,97153.45
2019-06-27T15:50:31.635Z,97155.88
2019-06-27T15:53:00.175Z,97152.91
2019-06-27T15:55:28.715Z,97152.21
2019-06-27T15:57:57.308Z,97145.77
2019-06-27T16:03:20.377Z,97141.38
2019-06-27T16:05:48.873Z,97144.80
2019-06-27T16:08:17.715Z,97137.70
2019-06-27T16:10:46.373Z,97147.17
2019-06-27T16:13:15.187Z,97145.67
2019-06-27T16:15:43.691Z,97134.38
2019-06-27T16:18:12.228Z,97139.69
2019-06-27T16:20:40.875Z,97136.92
2019-06-27T16:23:09.434Z,97136.17
2019-06-27T16:25:38.167Z,97132.45
2019-06-27T16:28:06.747Z,97139.84
2019-06-27T16:30:35.293Z,97138.34
2019-06-27T16:33:03.838Z,97133.27
2019-06-27T16:35:32.487Z,97135.31
2019-06-27T16:38:01.058Z,97140.65
2019-06-27T16:40:29.786Z,97135.92
2019-06-27T16:42:58.448Z,97131.95
2019-06-27T16:45:27.185Z,97134.41
2019-06-27T16:47:55.763Z,97134.40
2019-06-27T16:50:24.428Z,97137.44
2019-06-27T16:52:53.047Z,97135.36
2019-06-27T16:55:21.688Z,97134.80
2019-06-27T16:57:50.315Z,97133.48
2019-06-27T17:00:58.804Z,97139.80
2019-06-27T17:03:27.421Z,97140.73
2019-06-27T17:05:56.105Z,97138.50
2019-06-27T17:08:24.743Z,97135.80
2019-06-27T17:10:53.363Z,97141.72
2019-06-27T17:13:21.950Z,97137.35
2019-06-27T17:15:50.682Z,97142.66
2019-06-27T17:18:19.287Z,97134.30
2019-06-27T17:20:48.116Z,97140.38
2019-06-27T17:23:16.788Z,97143.21
2019-06-27T17:25:45.318Z,97139.41
2019-06-27T17:28:13.928Z,97149.81
2019-06-27T17:30:42.779Z,97145.30
2019-06-27T17:33:11.464Z,97143.14
2019-06-27T17:35:40.012Z,97140.08
2019-06-27T17:38:28.049Z,97137.22
2019-06-27T17:40:56.850Z,97143.45
2019-06-27T17:43:25.542Z,97141.91
2019-06-27T17:45:54.298Z,97147.05
2019-06-27T17:48:22.894Z,97144.20
2019-06-27T17:50:51.529Z,97153.50
2019-06-27T17:53:20.232Z,97140.96
2019-06-27T17:55:48.960Z,97141.89
2019-06-27T17:58:17.634Z,97143.69
2019-06-27T18:00:46.483Z,97148.02
2019-06-27T18:03:15.254Z,97147.80
2019-06-27T18:05:44.117Z,97150.77
2019-06-27T18:08:12.900Z,97150.89
2019-06-27T18:10:41.545Z,97146.72
2019-06-27T18:13:10.427Z,97148.16
2019-06-27T18:15:39.153Z,97143.73
2019-06-27T18:18:07.910Z,97148.82
2019-06-27T18:20:36.650Z,97152.52
2019-06-27T18:23:05.366Z,97148.73
2019-06-27T18:25:34.191Z,97151.91
2019-06-27T18:28:22.219Z,97153.41
2019-06-27T18:30:51.086Z,97153.41
2019-06-27T18:33:19.723Z,97159.69
2019-06-27T18:36:07.727Z,97174.25
2019-06-27T18:38:36.403Z,97174.25
2019-06-27T18:41:05.065Z,97176.93
2019-06-27T18:43:33.881Z,97170.51
2019-06-27T18:46:02.536Z,97167.88
2019-06-27T18:48:31.406Z,97169.23
2019-06-27T18:51:00.054Z,97175.09
2019-06-27T18:53:28.701Z,97179.92
2019-06-27T18:55:57.548Z,97177.23
2019-06-27T18:58:45.494Z,97178.16
2019-06-27T19:01:14.109Z,97181.72
2019-06-27T19:03:42.848Z,97184.79
2019-06-27T19:06:11.670Z,97186.56
2019-06-27T19:08:40.461Z,97188.89
2019-06-27T19:11:09.236Z,97191.64
2019-06-27T19:13:38.050Z,97185.72
2019-06-27T19:16:06.817Z,97189.88
2019-06-27T19:18:54.669Z,97189.48
2019-06-27T19:21:42.473Z,97195.64
2019-06-27T19:24:30.348Z,97199.55
2019-06-27T19:26:59.308Z,97201.14
2019-06-27T19:29:28.041Z,97204.63
2019-06-27T19:31:56.932Z,97208.73
2019-06-27T19:34:25.972Z,97207.56
2019-06-27T19:36:54.956Z,97211.80
2019-06-27T19:39:23.767Z,97212.12
2019-06-27T19:41:52.779Z,97214.26
2019-06-27T19:44:21.893Z,97217.52
2019-06-27T19:46:50.730Z,97218.21
2019-06-27T19:49:19.538Z,97218.12
2019-06-27T19:51:48.429Z,97226.18
2019-06-27T19:54:17.225Z,97228.88
2019-06-27T19:57:26.110Z,97230.88
2019-06-27T20:03:16.999Z,97231.11
2019-06-27T20:05:45.835Z,97238.06
2019-06-27T20:08:19.677Z,97243.46
2019-06-27T20:10:45.336Z,97252.53
2019-06-27T20:13:14.483Z,97249.48
2019-06-27T20:15:43.302Z,97250.08
2019-06-27T20:18:12.199Z,97251.09
2019-06-27T20:20:41.507Z,97262.63
2019-06-27T20:23:10.322Z,97261.84
2019-06-27T20:25:39.162Z,97262.28
2019-06-27T20:28:19.901Z,97265.80
2019-06-27T20:30:38.475Z,97259.39
2019-06-27T20:33:07.370Z,97264.52
2019-06-27T20:35:36.223Z,97272.77
2019-06-27T20:38:05.178Z,97272.64
2019-06-27T20:40:34.084Z,97268.93
2019-06-27T20:46:10.342Z,97276.05
2019-06-27T20:48:39.231Z,97274.87
2019-06-27T20:51:08.131Z,97278.94
2019-06-27T20:53:36.886Z,97282.45
2019-06-27T20:56:05.773Z,97284.39
2019-06-27T20:58:34.633Z,97285.14
2019-06-27T21:01:03.501Z,97285.89
2019-06-27T21:03:32.313Z,97284.59
2019-06-27T21:06:01.006Z,97285.11
2019-06-27T21:08:29.642Z,97282.76
2019-06-27T21:10:58.417Z,97291.59
2019-06-27T21:13:27.215Z,97287.86
2019-06-27T21:15:55.812Z,97291.97
2019-06-27T21:18:24.495Z,97291.84
2019-06-27T21:21:32.919Z,97291.84
2019-06-27T21:24:01.577Z,97290.76
2019-06-27T21:26:30.181Z,97296.38
2019-06-27T21:28:59.042Z,97290.02
2019-06-27T21:31:27.666Z,97293.84
2019-06-27T21:33:56.318Z,97293.14
2019-06-27T21:36:24.893Z,97294.09
2019-06-27T21:39:06.608Z,97295.37
2019-06-27T21:41:23.945Z,97299.41
2019-06-27T21:43:52.546Z,97303.59
2019-06-27T21:46:21.148Z,97306.38
2019-06-27T21:48:49.745Z,97307.41
2019-06-27T21:51:18.320Z,97301.34
2019-06-27T21:53:46.923Z,97299.77
2019-06-27T21:56:15.612Z,97301.87
2019-06-27T21:58:44.281Z,97299.58
2019-06-27T22:01:12.994Z,97308.89
2019-06-27T22:03:41.684Z,97303.39
2019-06-27T22:06:10.440Z,97300.62
2019-06-27T22:08:39.015Z,97300.80
2019-06-27T22:11:07.821Z,97304.70
2019-06-27T22:13:36.457Z,97304.24
2019-06-27T22:16:05.117Z,97297.78
2019-06-27T22:18:33.759Z,97299.67
2019-06-27T22:21:02.400Z,97295.75
2019-06-27T22:23:30.916Z,97297.61
2019-06-27T22:25:59.552Z,97292.08
2019-06-27T22:28:28.543Z,97299.22
2019-06-27T22:30:57.958Z,97295.25
2019-06-27T22:33:26.743Z,97297.73
2019-06-27T22:35:55.253Z,97290.63
2019-06-27T22:38:42.940Z,97290.28
2019-06-27T22:41:30.741Z,97292.20
2019-06-27T22:44:18.453Z,97299.78
2019-06-27T22:47:06.180Z,97294.81
2019-06-27T22:49:34.015Z,97289.48
2019-06-27T22:52:21.749Z,97294.84
2019-06-27T22:57:25.955Z,97292.77
2019-06-27T22:59:54.513Z,97289.31
2019-06-27T23:02:23.046Z,97280.08
2019-06-27T23:04:51.616Z,97279.90
2019-06-27T23:07:20.605Z,97281.67
2019-06-27T23:09:57.029Z,97278.88
2019-06-27T23:12:19.602Z,97277.16
2019-06-27T23:14:48.182Z,97283.64
2019-06-27T23:17:16.892Z,97275.69
2019-06-27T23:19:45.474Z,97279.68
2019-06-27T23:22:14.121Z,97277.17
2019-06-27T23:24:42.656Z,97279.86
2019-06-27T23:27:11.152Z,97274.05
2019-06-27T23:29:39.684Z,97280.90
2019-06-27T23:32:08.212Z,97278.19
2019-06-27T23:34:36.778Z,97276.74
2019-06-27T23:37:05.377Z,97274.36
2019-06-27T23:39:34.018Z,97279.09
2019-06-27T23:42:02.561Z,97278.39
2019-06-27T23:44:31.074Z,97274.31
2019-06-27T23:46:59.592Z,97276.40
2019-06-27T23:49:28.109Z,97272.06
2019-06-27T23:51:56.568Z,97275.07
2019-06-27T23:54:25.061Z,97263.44
2019-06-27T23:56:53.641Z,97271.33
2019-06-27T23:59:22.169Z,97274.81
